Time;durP1;ratioP1;P1;durP2;ratioP2;P2;SDS_P1;SDS_P2;PMS_P1;PMS_P2;Temp;Humidity;BMP_temperature;BMP_pressure;BME280_temperature;BME280_humidity;BME280_pressure;Samples;Min_cycle;Max_cycle;Signal;HPM_P1;HPM_P2
2022/09/08 00:01:50;;;;;;;4.20;2.70;;;21.60;99.90;;;;;;4958386;28;20187;-67
2022/09/08 00:04:15;;;;;;;5.00;3.13;;;21.70;99.90;;;;;;4957023;28;20224;-67
2022/09/08 00:06:41;;;;;;;4.20;2.77;;;21.70;99.90;;;;;;4955327;28;20192;-67
2022/09/08 00:09:07;;;;;;;3.03;2.73;;;21.70;99.90;;;;;;4958167;28;20663;-68
2022/09/08 00:11:34;;;;;;;5.40;2.90;;;21.80;99.90;;;;;;4957684;28;20734;-68
2022/09/08 00:14:04;;;;;;;3.80;3.00;;;21.80;99.90;;;;;;4954104;28;20353;-68
2022/09/08 00:16:30;;;;;;;9.47;3.40;;;21.80;99.90;;;;;;4956626;28;20434;-68
2022/09/08 00:18:56;;;;;;;4.73;2.67;;;21.80;99.90;;;;;;4957589;28;20536;-67
2022/09/08 00:21:24;;;;;;;3.70;2.60;;;21.80;99.90;;;;;;4953227;28;20205;-68
2022/09/08 00:23:50;;;;;;;3.83;2.33;;;21.80;99.90;;;;;;4958013;28;20458;-68
2022/09/08 00:26:17;;;;;;;3.83;2.80;;;21.90;99.90;;;;;;4950274;28;20443;-68
2022/09/08 00:28:43;;;;;;;4.20;3.20;;;21.90;99.90;;;;;;4955114;28;20264;-67
2022/09/08 00:31:09;;;;;;;3.40;3.10;;;21.90;99.90;;;;;;4957192;28;20931;-67
2022/09/08 00:33:35;;;;;;;6.20;3.60;;;21.90;99.90;;;;;;4943706;28;20259;-68
2022/09/08 00:36:03;;;;;;;3.50;2.70;;;21.90;99.90;;;;;;4957618;28;20227;-68
2022/09/08 00:38:30;;;;;;;3.27;2.47;;;21.90;99.90;;;;;;4957018;28;20326;-68
2022/09/08 00:40:56;;;;;;;7.20;2.70;;;21.90;99.90;;;;;;4956796;28;20438;-66
2022/09/08 00:43:42;;;;;;;4.23;3.40;;;21.90;99.90;;;;;;4954978;28;20461;-68
2022/09/08 00:46:16;;;;;;;3.03;2.73;;;21.90;99.90;;;;;;4955903;28;20567;-67
2022/09/08 00:48:50;;;;;;;3.33;2.70;;;21.90;99.90;;;;;;4955522;28;20481;-67
2022/09/08 00:51:17;;;;;;;2.63;2.43;;;21.90;99.90;;;;;;4955909;28;20479;-68
2022/09/08 00:53:44;;;;;;;4.83;2.87;;;21.90;99.90;;;;;;4953503;28;20462;-68
2022/09/08 00:56:11;;;;;;;3.40;2.67;;;21.90;99.90;;;;;;4950855;28;20569;-68
2022/09/08 00:58:39;;;;;;;3.60;2.90;;;21.90;99.90;;;;;;4959303;28;20446;-67
2022/09/08 01:01:06;;;;;;;4.03;2.67;;;21.90;99.90;;;;;;4953181;28;20719;-70
2022/09/08 01:03:32;;;;;;;4.37;3.27;;;21.90;99.90;;;;;;4957036;28;20492;-68
2022/09/08 01:12:43;;;;;;;3.63;2.90;;;21.90;99.90;;;;;;4956229;28;20457;-67
2022/09/08 01:15:04;;;;;;;8.33;3.77;;;21.90;99.90;;;;;;4956294;28;20484;-69
2022/09/08 01:17:30;;;;;;;4.10;3.37;;;21.70;99.90;;;;;;4956005;28;20453;-69
2022/09/08 01:19:58;;;;;;;6.93;3.50;;;21.70;99.90;;;;;;4956803;28;20805;-67
2022/09/08 01:22:35;;;;;;;4.93;3.90;;;21.70;99.90;;;;;;4954753;28;20439;-68
2022/09/08 01:25:28;;;;;;;5.77;3.60;;;21.60;99.90;;;;;;4956719;28;20492;-69
2022/09/08 01:28:08;;;;;;;4.50;3.33;;;21.60;99.90;;;;;;4957146;28;20465;-69
2022/09/08 01:30:35;;;;;;;4.50;3.40;;;21.60;99.90;;;;;;4953357;28;20788;-69
2022/09/08 01:33:07;;;;;;;5.13;3.53;;;21.50;99.90;;;;;;4956369;28;20445;-68
2022/09/08 01:35:40;;;;;;;5.10;3.73;;;21.50;99.90;;;;;;4958805;28;20433;-70
2022/09/08 01:38:07;;;;;;;9.90;3.50;;;21.50;99.90;;;;;;4954590;28;20442;-68
2022/09/08 01:40:33;;;;;;;4.97;4.00;;;21.50;99.90;;;;;;4956065;28;20528;-68
2022/09/08 01:42:59;;;;;;;3.70;3.30;;;21.50;99.90;;;;;;4957828;28;20442;-68
2022/09/08 01:45:27;;;;;;;5.43;4.07;;;21.40;99.90;;;;;;4951588;28;20910;-69
2022/09/08 01:47:53;;;;;;;4.70;3.30;;;21.50;99.90;;;;;;4954625;28;20226;-69
2022/09/08 01:50:19;;;;;;;5.67;3.90;;;21.50;99.90;;;;;;4955826;28;20449;-69
2022/09/08 01:52:44;;;;;;;5.60;3.60;;;21.50;99.90;;;;;;4954635;28;20438;-68
2022/09/08 01:55:10;;;;;;;4.40;3.60;;;21.40;99.90;;;;;;4956201;28;20247;-67
2022/09/08 01:57:36;;;;;;;3.97;3.20;;;21.40;99.90;;;;;;4954016;28;20210;-68
2022/09/08 02:00:02;;;;;;;4.67;3.37;;;21.40;99.90;;;;;;4953535;28;20179;-68
2022/09/08 02:02:28;;;;;;;4.57;4.17;;;21.50;99.90;;;;;;4956623;28;20201;-68
2022/09/08 02:04:53;;;;;;;4.57;3.60;;;21.50;99.90;;;;;;4957630;28;20461;-67
2022/09/08 02:07:19;;;;;;;4.37;3.93;;;21.50;99.90;;;;;;4959934;28;20202;-67
2022/09/08 02:09:45;;;;;;;4.60;3.50;;;21.50;99.90;;;;;;4963204;28;20289;-67
2022/09/08 02:12:10;;;;;;;6.03;2.90;;;21.50;99.90;;;;;;4959710;28;20179;-69
2022/09/08 02:14:36;;;;;;;3.87;3.40;;;21.50;99.90;;;;;;4959504;28;20299;-68
2022/09/08 02:17:02;;;;;;;5.10;3.50;;;21.50;99.90;;;;;;4957133;28;20346;-68
2022/09/08 02:19:28;;;;;;;8.83;3.50;;;21.50;99.90;;;;;;4956275;28;20187;-68
2022/09/08 02:21:53;;;;;;;5.23;3.63;;;21.60;99.90;;;;;;4959080;28;20978;-68
2022/09/08 02:24:19;;;;;;;3.77;3.37;;;21.60;99.90;;;;;;4957858;28;20289;-68
2022/09/08 02:26:45;;;;;;;5.97;3.60;;;21.60;99.90;;;;;;4957722;28;20210;-68
2022/09/08 02:29:10;;;;;;;8.60;3.73;;;21.60;99.90;;;;;;4961053;28;20762;-68
2022/09/08 02:31:37;;;;;;;6.50;3.20;;;21.60;99.90;;;;;;4960890;28;20288;-67
2022/09/08 02:34:03;;;;;;;6.47;3.37;;;21.70;99.90;;;;;;4960696;28;20606;-67
2022/09/08 02:36:29;;;;;;;6.23;3.43;;;21.60;99.90;;;;;;4961761;28;20516;-67
2022/09/08 02:38:55;;;;;;;4.93;3.40;;;21.60;99.90;;;;;;4946628;28;20556;-68
2022/09/08 02:41:25;;;;;;;4.30;3.73;;;21.60;99.90;;;;;;4956961;28;20622;-68
2022/09/08 02:43:51;;;;;;;4.90;3.50;;;21.60;99.90;;;;;;4962028;28;20484;-68
2022/09/08 02:46:17;;;;;;;5.20;3.80;;;21.60;99.90;;;;;;4959139;28;20449;-68
2022/09/08 02:48:43;;;;;;;5.10;3.70;;;21.60;99.90;;;;;;4958191;28;20276;-67
2022/09/08 02:51:12;;;;;;;4.23;3.80;;;21.70;99.90;;;;;;4957847;28;20805;-68
2022/09/08 02:53:39;;;;;;;3.60;3.20;;;21.70;99.90;;;;;;4957240;28;20665;-69
2022/09/08 02:56:06;;;;;;;4.77;3.40;;;21.70;99.90;;;;;;4956415;28;20449;-68
2022/09/08 02:58:32;;;;;;;3.63;3.33;;;21.60;99.90;;;;;;4961926;28;20943;-69
2022/09/08 03:00:58;;;;;;;5.07;3.53;;;21.60;99.90;;;;;;4958852;28;20441;-70
2022/09/08 03:03:24;;;;;;;6.40;3.70;;;21.60;99.90;;;;;;4959127;28;21037;-70
2022/09/08 03:05:51;;;;;;;4.43;4.03;;;21.60;99.90;;;;;;4959352;28;21254;-70
2022/09/08 03:08:18;;;;;;;6.00;3.93;;;21.50;99.90;;;;;;4945353;28;20474;-70
2022/09/08 03:10:44;;;;;;;6.30;3.70;;;21.40;99.90;;;;;;4957420;28;20437;-70
2022/09/08 03:13:10;;;;;;;3.60;3.13;;;21.40;99.90;;;;;;4959842;28;20448;-69
2022/09/08 03:15:36;;;;;;;6.20;3.83;;;21.40;99.90;;;;;;4941995;28;20452;-68
2022/09/08 03:18:05;;;;;;;4.97;3.93;;;21.30;99.90;;;;;;4957136;28;20654;-69
2022/09/08 03:20:32;;;;;;;5.20;3.97;;;21.30;99.90;;;;;;4960461;28;20433;-69
2022/09/08 03:22:58;;;;;;;6.50;3.90;;;21.30;99.90;;;;;;4955675;28;20525;-69
2022/09/08 03:25:24;;;;;;;6.63;3.93;;;21.20;99.90;;;;;;4959647;28;20557;-69
2022/09/08 03:27:50;;;;;;;5.10;4.10;;;21.20;99.90;;;;;;4942750;28;20474;-69
2022/09/08 03:30:17;;;;;;;5.20;4.30;;;21.20;99.90;;;;;;4953494;28;20450;-69
2022/09/08 03:32:45;;;;;;;6.03;3.80;;;21.00;99.90;;;;;;4957844;28;20270;-69
2022/09/08 03:35:12;;;;;;;9.53;4.20;;;21.00;99.90;;;;;;4957784;28;20466;-69
2022/09/08 03:37:38;;;;;;;5.30;4.80;;;20.90;99.90;;;;;;4955959;28;20645;-69
2022/09/08 03:40:09;;;;;;;5.40;4.07;;;20.90;99.90;;;;;;4940277;28;20446;-70
2022/09/08 03:42:37;;;;;;;5.23;3.67;;;20.80;99.90;;;;;;4958269;28;20536;-70
2022/09/08 03:45:06;;;;;;;9.33;4.90;;;20.70;99.90;;;;;;4959234;28;20469;-69
2022/09/08 03:47:32;;;;;;;4.53;3.70;;;20.60;99.90;;;;;;4959636;28;20514;-69
2022/09/08 03:49:58;;;;;;;4.63;3.27;;;20.60;99.90;;;;;;4958949;28;20450;-69
2022/09/08 03:52:25;;;;;;;3.10;2.80;;;20.70;99.90;;;;;;4955112;28;20674;-68
2022/09/08 03:54:51;;;;;;;4.90;3.60;;;20.60;99.90;;;;;;4945014;28;20482;-68
2022/09/08 03:57:26;;;;;;;4.87;3.47;;;20.60;99.90;;;;;;4960382;28;20462;-68
2022/09/08 03:59:54;;;;;;;4.13;3.10;;;20.60;99.90;;;;;;4955685;28;20966;-68
2022/09/08 04:02:20;;;;;;;3.20;2.90;;;20.50;99.90;;;;;;4956133;28;20447;-68
2022/09/08 04:04:54;;;;;;;4.87;3.10;;;20.40;99.90;;;;;;4957732;28;20600;-69
2022/09/08 04:07:22;;;;;;;5.00;3.03;;;20.30;99.90;;;;;;4958050;28;20478;-68
2022/09/08 04:09:48;;;;;;;4.20;2.83;;;20.30;99.90;;;;;;4959116;28;20446;-68
2022/09/08 04:12:15;;;;;;;3.07;2.20;;;20.40;99.90;;;;;;4955416;28;20465;-67
2022/09/08 04:14:41;;;;;;;3.63;2.40;;;20.30;99.90;;;;;;4954593;28;20702;-68
2022/09/08 04:17:07;;;;;;;2.37;2.00;;;20.20;99.90;;;;;;4954837;28;20457;-70
2022/09/08 04:19:33;;;;;;;2.80;2.00;;;20.00;99.90;;;;;;4958029;28;20182;-67
2022/09/08 04:21:58;;;;;;;3.20;2.07;;;19.90;99.90;;;;;;4957242;28;20434;-68
2022/09/08 04:24:24;;;;;;;2.27;1.67;;;19.80;99.90;;;;;;4957467;28;20225;-68
2022/09/08 04:26:50;;;;;;;2.93;2.23;;;19.80;99.90;;;;;;4957184;28;20194;-69
2022/09/08 04:29:16;;;;;;;5.20;1.90;;;19.80;99.90;;;;;;4943933;28;20741;-68
2022/09/08 04:31:43;;;;;;;2.07;1.87;;;19.70;99.90;;;;;;4955066;28;20919;-70
2022/09/08 04:34:09;;;;;;;3.43;2.07;;;19.70;99.90;;;;;;4956512;28;20466;-66
2022/09/08 04:36:35;;;;;;;4.83;2.17;;;19.60;99.90;;;;;;4960121;28;21206;-69
2022/09/08 04:39:01;;;;;;;4.63;2.10;;;19.60;99.90;;;;;;4955716;28;20474;-70
2022/09/08 04:41:28;;;;;;;3.90;1.90;;;19.40;99.90;;;;;;4956560;28;20243;-67
2022/09/08 04:43:56;;;;;;;4.10;2.20;;;19.20;99.90;;;;;;4961174;28;20462;-68
2022/09/08 04:46:22;;;;;;;2.43;2.23;;;19.20;99.90;;;;;;4955577;28;20788;-68
2022/09/08 04:48:47;;;;;;;8.57;2.20;;;19.30;99.90;;;;;;4958063;28;20475;-68
2022/09/08 04:51:18;;;;;;;2.50;1.90;;;19.30;99.90;;;;;;4957909;28;20453;-71
2022/09/08 04:53:44;;;;;;;2.43;1.73;;;19.30;99.90;;;;;;4939811;28;20285;-71
2022/09/08 04:56:21;;;;;;;2.30;1.80;;;19.30;99.90;;;;;;4957251;28;20597;-68
2022/09/08 04:58:50;;;;;;;2.87;1.93;;;19.00;99.90;;;;;;4954870;28;20433;-67
2022/09/08 05:01:36;;;;;;;3.20;2.17;;;19.00;99.90;;;;;;4954455;28;20454;-69
2022/09/08 05:04:03;;;;;;;4.37;1.77;;;19.10;99.90;;;;;;4951537;28;21676;-70
2022/09/08 05:06:31;;;;;;;2.47;2.10;;;18.90;99.90;;;;;;4954307;28;20442;-69
2022/09/08 05:08:58;;;;;;;5.17;2.10;;;18.90;99.90;;;;;;4954795;28;20477;-69
2022/09/08 05:11:26;;;;;;;4.27;2.13;;;18.80;99.90;;;;;;4956672;28;20465;-69
2022/09/08 05:13:53;;;;;;;3.47;2.10;;;18.70;99.90;;;;;;4957896;28;20466;-69
2022/09/08 05:16:26;;;;;;;2.20;1.60;;;18.60;99.90;;;;;;4939129;28;20538;-69
2022/09/08 05:18:56;;;;;;;2.40;1.60;;;18.70;99.90;;;;;;4951476;28;20443;-67
2022/09/08 05:21:23;;;;;;;3.83;1.50;;;18.70;99.90;;;;;;4952162;28;20504;-67
2022/09/08 05:23:53;;;;;;;3.47;1.40;;;18.60;99.90;;;;;;4954249;28;20485;-69
2022/09/08 05:26:20;;;;;;;1.93;1.40;;;18.70;99.90;;;;;;4952553;28;20517;-67
2022/09/08 05:28:46;;;;;;;2.40;1.90;;;18.60;99.90;;;;;;4954960;28;20465;-67
2022/09/08 05:31:15;;;;;;;2.37;1.80;;;18.50;99.90;;;;;;4952974;28;20430;-69
2022/09/08 05:33:41;;;;;;;5.23;1.87;;;18.60;99.90;;;;;;4954991;28;20450;-67
2022/09/08 05:36:17;;;;;;;2.20;1.70;;;18.60;99.90;;;;;;4954397;28;20448;-68
2022/09/08 05:38:44;;;;;;;3.60;2.23;;;18.70;99.90;;;;;;4952629;28;20198;-68
2022/09/08 05:41:10;;;;;;;3.60;1.70;;;18.70;99.90;;;;;;4954038;28;20930;-68
2022/09/08 05:43:36;;;;;;;2.70;1.90;;;18.80;99.90;;;;;;4953195;28;20484;-68
2022/09/08 05:46:02;;;;;;;3.33;1.67;;;18.70;99.90;;;;;;4956092;28;20437;-68
2022/09/08 05:48:28;;;;;;;3.23;1.80;;;18.80;99.90;;;;;;4953843;28;20470;-69
2022/09/08 05:50:53;;;;;;;2.40;2.10;;;18.70;99.90;;;;;;4942521;28;20439;-69
2022/09/08 05:53:19;;;;;;;2.20;1.70;;;18.70;99.90;;;;;;4955428;28;20922;-68
2022/09/08 05:56:04;;;;;;;2.47;1.50;;;18.80;99.90;;;;;;4955508;28;20578;-68
2022/09/08 05:58:31;;;;;;;2.40;1.90;;;18.80;99.90;;;;;;4955978;28;20245;-68
2022/09/08 06:01:02;;;;;;;3.50;1.93;;;18.80;99.90;;;;;;4957434;28;20441;-70
2022/09/08 06:03:37;;;;;;;4.10;1.70;;;18.80;99.90;;;;;;4960953;28;20461;-68
2022/09/08 06:06:07;;;;;;;2.13;1.60;;;18.90;99.90;;;;;;4954362;28;20460;-68
2022/09/08 06:08:33;;;;;;;6.80;2.00;;;19.00;99.90;;;;;;4956217;28;20462;-68
2022/09/08 06:10:58;;;;;;;3.37;2.30;;;19.00;99.90;;;;;;4953699;28;20445;-68
2022/09/08 06:13:31;;;;;;;7.13;2.90;;;19.00;99.90;;;;;;4955273;28;20948;-69
2022/09/08 06:16:09;;;;;;;9.40;5.50;;;19.00;99.90;;;;;;4954911;28;20221;-69
2022/09/08 06:18:36;;;;;;;3.60;2.10;;;19.00;99.90;;;;;;4956485;28;20449;-68
2022/09/08 06:21:07;;;;;;;6.33;3.00;;;19.00;99.90;;;;;;4952907;28;20521;-69
2022/09/08 06:23:33;;;;;;;6.43;3.07;;;19.00;99.90;;;;;;4954299;28;20461;-68
2022/09/08 06:26:29;;;;;;;4.57;2.30;;;18.90;99.90;;;;;;4953448;28;20453;-68
2022/09/08 06:29:02;;;;;;;4.53;2.17;;;18.90;99.90;;;;;;4957352;28;20484;-68
2022/09/08 06:31:32;;;;;;;3.20;2.20;;;18.80;99.90;;;;;;4953024;28;20431;-68
2022/09/08 06:34:03;;;;;;;2.90;2.00;;;18.80;99.90;;;;;;4956427;28;20490;-68
2022/09/08 06:36:45;;;;;;;3.40;2.00;;;18.80;99.90;;;;;;4957429;28;20430;-69
2022/09/08 06:39:20;;;;;;;5.13;2.10;;;18.80;99.90;;;;;;4953214;28;20458;-69
2022/09/08 06:41:49;;;;;;;3.73;1.87;;;18.90;99.90;;;;;;4949719;28;20435;-69
2022/09/08 06:44:21;;;;;;;4.17;2.57;;;19.00;99.90;;;;;;4951078;28;20449;-68
2022/09/08 06:46:47;;;;;;;2.70;2.00;;;19.10;99.90;;;;;;4952979;28;20542;-69
2022/09/08 06:49:13;;;;;;;3.07;1.80;;;19.00;99.90;;;;;;4955006;28;20740;-68
2022/09/08 06:51:55;;;;;;;2.77;1.83;;;19.10;99.90;;;;;;4952978;28;20178;-68
2022/09/08 06:54:46;;;;;;;3.73;2.03;;;19.10;99.90;;;;;;4945747;28;20214;-68
2022/09/08 06:57:26;;;;;;;3.33;1.70;;;19.10;99.90;;;;;;4958628;28;21022;-68
2022/09/08 07:00:10;;;;;;;2.57;1.97;;;19.10;99.90;;;;;;4957541;28;20643;-69
2022/09/08 07:03:11;;;;;;;2.40;1.70;;;19.00;99.90;;;;;;4960153;28;20446;-68
2022/09/08 07:05:51;;;;;;;2.13;1.60;;;19.00;99.90;;;;;;4955771;28;20441;-67
2022/09/08 07:08:28;;;;;;;3.07;1.67;;;19.10;99.90;;;;;;4955857;28;20462;-68
2022/09/08 07:11:04;;;;;;;2.30;1.50;;;19.10;99.90;;;;;;4959811;28;20467;-67
2022/09/08 07:13:51;;;;;;;2.60;1.73;;;19.10;99.90;;;;;;4956372;28;20913;-68
2022/09/08 07:16:34;;;;;;;2.87;1.90;;;19.20;99.90;;;;;;4958664;28;21024;-68
2022/09/08 07:19:25;;;;;;;4.03;1.80;;;19.30;99.90;;;;;;4955911;28;20446;-69
2022/09/08 07:22:00;;;;;;;3.63;1.50;;;19.30;99.90;;;;;;4958879;28;20513;-69
2022/09/08 07:24:36;;;;;;;2.87;1.83;;;19.20;99.90;;;;;;4960022;28;20978;-68
2022/09/08 07:27:07;;;;;;;2.20;1.67;;;19.30;99.90;;;;;;4955614;28;20445;-68
2022/09/08 07:29:42;;;;;;;2.77;1.90;;;19.20;99.90;;;;;;4957208;28;20430;-70
2022/09/08 07:32:17;;;;;;;3.73;1.80;;;19.30;99.90;;;;;;4955679;28;20433;-70
2022/09/08 07:34:57;;;;;;;7.40;2.10;;;19.40;99.90;;;;;;4956589;28;20717;-70
2022/09/08 07:37:51;;;;;;;3.90;2.20;;;19.40;99.90;;;;;;4959098;28;20572;-70
2022/09/08 07:40:41;;;;;;;3.77;1.70;;;19.50;99.90;;;;;;4954456;28;20450;-71
2022/09/08 07:43:12;;;;;;;2.03;1.60;;;19.50;99.90;;;;;;4957528;28;20422;-70
2022/09/08 07:45:51;;;;;;;3.27;1.80;;;19.50;99.90;;;;;;4958926;28;20796;-70
2022/09/08 07:48:55;;;;;;;4.50;2.10;;;19.50;99.90;;;;;;4954903;28;21053;-71
2022/09/08 07:51:27;;;;;;;4.40;1.73;;;19.50;99.90;;;;;;4923105;29;20427;-70
2022/09/08 07:54:18;;;;;;;2.90;1.80;;;19.40;99.90;;;;;;4951679;28;20874;-71
2022/09/08 07:56:54;;;;;;;2.10;1.57;;;19.30;99.90;;;;;;4957220;28;20442;-70
2022/09/08 07:59:42;;;;;;;2.97;1.80;;;19.40;99.90;;;;;;4957070;28;20455;-71
2022/09/08 08:02:34;;;;;;;4.70;1.60;;;19.40;99.90;;;;;;4956112;28;20673;-69
2022/09/08 08:05:25;;;;;;;3.70;1.60;;;19.30;99.90;;;;;;4954550;28;20569;-69
2022/09/08 08:07:54;;;;;;;3.60;1.73;;;19.20;99.90;;;;;;4957190;28;20505;-69
2022/09/08 08:10:25;;;;;;;2.23;1.60;;;19.00;99.90;;;;;;4953797;28;20525;-69
2022/09/08 08:13:16;;;;;;;2.00;1.60;;;19.10;99.90;;;;;;4955241;28;20430;-69
2022/09/08 08:16:06;;;;;;;2.80;1.80;;;19.10;99.90;;;;;;4956414;28;20446;-70
2022/09/08 08:18:47;;;;;;;2.50;1.90;;;19.20;99.90;;;;;;4957369;28;20997;-69
2022/09/08 08:21:23;;;;;;;2.30;1.80;;;19.30;99.90;;;;;;4942781;28;20434;-70
2022/09/08 08:24:17;;;;;;;4.47;3.40;;;19.50;99.90;;;;;;4952456;28;20976;-70
2022/09/08 08:26:59;;;;;;;4.83;1.80;;;19.60;99.90;;;;;;4953428;28;20971;-70
2022/09/08 08:29:32;;;;;;;2.97;2.27;;;19.60;99.90;;;;;;4952829;28;20546;-69
2022/09/08 08:32:16;;;;;;;7.13;1.77;;;19.80;99.90;;;;;;4952484;28;20431;-69
2022/09/08 08:34:56;;;;;;;3.57;2.20;;;19.70;99.90;;;;;;4956060;28;20543;-69
2022/09/08 08:37:25;;;;;;;3.03;1.67;;;19.90;99.90;;;;;;4944937;28;20453;-69
2022/09/08 08:39:55;;;;;;;3.07;1.70;;;19.90;99.90;;;;;;4951700;28;20474;-69
2022/09/08 08:42:40;;;;;;;2.40;1.50;;;20.00;99.90;;;;;;4957691;28;20474;-69
2022/09/08 08:45:30;;;;;;;2.20;1.57;;;20.10;99.90;;;;;;4954859;28;20963;-69
2022/09/08 08:48:11;;;;;;;3.37;1.63;;;19.90;99.90;;;;;;4954177;28;20820;-70
2022/09/08 08:50:58;;;;;;;2.20;1.60;;;19.80;99.90;;;;;;4954538;28;20811;-68
2022/09/08 08:53:47;;;;;;;3.50;1.70;;;19.80;99.90;;;;;;4955096;28;20544;-68
2022/09/08 08:56:19;;;;;;;6.23;2.10;;;19.80;99.90;;;;;;4957730;28;20470;-69
2022/09/08 08:59:15;;;;;;;2.53;1.60;;;19.70;99.90;;;;;;4955710;28;21020;-68
2022/09/08 09:02:13;;;;;;;2.50;1.60;;;19.80;99.90;;;;;;4953698;28;20438;-69
2022/09/08 09:05:10;;;;;;;1.90;1.40;;;19.90;99.90;;;;;;4952837;28;20463;-69
2022/09/08 09:07:54;;;;;;;1.83;1.60;;;20.10;99.90;;;;;;4957474;28;20472;-70
2022/09/08 09:10:48;;;;;;;2.73;1.60;;;20.00;99.90;;;;;;4958379;28;20746;-69
2022/09/08 09:13:29;;;;;;;1.80;1.40;;;20.10;99.90;;;;;;4939108;28;20439;-69
2022/09/08 09:16:04;;;;;;;2.20;1.70;;;20.10;99.90;;;;;;4957564;28;20930;-69
2022/09/08 09:19:02;;;;;;;2.27;1.60;;;20.20;99.90;;;;;;4953201;28;20537;-69
2022/09/08 09:21:52;;;;;;;2.30;1.60;;;20.10;99.90;;;;;;4952371;28;20852;-70
2022/09/08 09:24:36;;;;;;;1.80;1.50;;;20.20;99.90;;;;;;4951223;28;20465;-69
2022/09/08 09:27:12;;;;;;;2.43;1.67;;;20.30;99.90;;;;;;4953250;28;20485;-69
2022/09/08 09:29:38;;;;;;;1.83;1.40;;;20.40;99.90;;;;;;4954084;28;20473;-69
2022/09/08 09:32:21;;;;;;;3.37;1.93;;;20.50;99.90;;;;;;4953078;28;20482;-69
2022/09/08 09:35:13;;;;;;;2.87;1.47;;;20.50;99.90;;;;;;4954814;28;20285;-69
2022/09/08 09:38:05;;;;;;;4.77;1.70;;;20.50;99.90;;;;;;4956105;28;20592;-69
2022/09/08 09:40:50;;;;;;;2.40;1.67;;;20.80;99.90;;;;;;4958194;28;20433;-69
2022/09/08 09:43:44;;;;;;;1.90;1.53;;;20.80;99.90;;;;;;4953552;28;20434;-70
2022/09/08 09:46:37;;;;;;;1.93;1.53;;;20.70;99.90;;;;;;4954622;28;20871;-69
2022/09/08 09:49:25;;;;;;;3.80;1.77;;;20.90;99.90;;;;;;4952184;28;20552;-70
2022/09/08 09:52:09;;;;;;;4.80;1.97;;;21.00;99.90;;;;;;4951315;28;20933;-69
2022/09/08 09:54:55;;;;;;;1.90;1.60;;;21.00;99.90;;;;;;4954559;28;20443;-69
2022/09/08 09:57:44;;;;;;;2.00;1.80;;;21.10;99.90;;;;;;4953686;28;20581;-69
2022/09/08 10:00:16;;;;;;;2.53;1.70;;;21.00;99.90;;;;;;4958546;28;20806;-69
2022/09/08 10:02:51;;;;;;;2.07;1.70;;;20.90;99.90;;;;;;4958865;28;20466;-70
2022/09/08 10:05:37;;;;;;;2.90;1.73;;;20.90;99.90;;;;;;4956749;28;20449;-68
2022/09/08 10:08:54;;;;;;;2.67;1.60;;;21.10;99.90;;;;;;4943338;28;21022;-68
2022/09/08 10:12:01;;;;;;;2.63;1.90;;;21.20;99.90;;;;;;4935331;28;20447;-69
2022/09/08 10:15:03;;;;;;;4.40;1.70;;;21.00;99.90;;;;;;4951941;28;20470;-69
2022/09/08 10:17:44;;;;;;;2.53;1.73;;;21.00;99.90;;;;;;4957179;28;20434;-69
2022/09/08 10:20:25;;;;;;;2.20;2.00;;;21.00;99.90;;;;;;4954811;28;20436;-69
2022/09/08 10:22:51;;;;;;;2.37;1.90;;;20.90;99.90;;;;;;4957230;28;20860;-70
2022/09/08 10:25:46;;;;;;;2.83;2.27;;;21.20;99.90;;;;;;4956141;28;20468;-70
2022/09/08 10:28:23;;;;;;;3.73;1.90;;;21.20;99.90;;;;;;4957081;28;20211;-70
2022/09/08 10:31:24;;;;;;;2.43;2.03;;;21.30;99.90;;;;;;4956615;28;20438;-70
2022/09/08 10:34:17;;;;;;;6.20;1.90;;;21.40;99.90;;;;;;4951923;28;20476;-70
2022/09/08 10:37:01;;;;;;;3.70;1.90;;;21.40;99.90;;;;;;4959469;28;20430;-69
2022/09/08 10:39:39;;;;;;;2.67;1.90;;;21.50;99.90;;;;;;4961231;28;20446;-66
2022/09/08 10:42:30;;;;;;;2.10;1.57;;;21.40;99.90;;;;;;4959178;28;20529;-66
2022/09/08 10:45:10;;;;;;;3.03;2.03;;;21.40;99.90;;;;;;4957758;28;21058;-68
2022/09/08 10:47:57;;;;;;;2.33;1.70;;;21.10;99.90;;;;;;4957128;28;20457;-68
2022/09/08 10:50:28;;;;;;;2.20;1.70;;;21.20;99.90;;;;;;4957419;28;20441;-68
2022/09/08 10:53:38;;;;;;;4.30;1.90;;;21.40;99.90;;;;;;4944791;28;20484;-68
2022/09/08 10:56:25;;;;;;;3.60;1.97;;;21.30;99.90;;;;;;4936743;28;20446;-68
2022/09/08 10:59:21;;;;;;;3.03;1.93;;;21.20;99.90;;;;;;4957443;28;20859;-71
2022/09/08 11:02:14;;;;;;;3.00;2.30;;;21.40;99.90;;;;;;4940577;28;20446;-68
2022/09/08 11:05:18;;;;;;;4.00;2.20;;;21.70;99.90;;;;;;4956622;28;20500;-68
2022/09/08 11:07:46;;;;;;;2.13;1.60;;;21.90;99.90;;;;;;4956817;28;20570;-70
2022/09/08 11:10:38;;;;;;;2.57;2.07;;;21.90;99.90;;;;;;4953093;28;20442;-70
2022/09/08 11:13:34;;;;;;;2.77;1.93;;;22.00;99.90;;;;;;4952262;28;20914;-71
2022/09/08 11:16:03;;;;;;;2.63;1.90;;;22.30;99.90;;;;;;4955499;28;20450;-71
2022/09/08 11:18:44;;;;;;;4.07;2.80;;;22.60;99.90;;;;;;4958754;28;20443;-71
2022/09/08 11:21:20;;;;;;;3.43;1.83;;;22.60;99.90;;;;;;4956468;28;21088;-71
2022/09/08 11:24:14;;;;;;;3.43;2.17;;;22.70;99.90;;;;;;4956504;28;20469;-71
2022/09/08 11:26:58;;;;;;;6.20;2.10;;;22.60;99.90;;;;;;4956141;28;20829;-71
2022/09/08 11:29:34;;;;;;;3.67;2.57;;;22.70;99.90;;;;;;4953496;28;20922;-71
2022/09/08 11:32:15;;;;;;;3.10;1.70;;;22.80;99.90;;;;;;4952108;28;20505;-71
2022/09/08 11:34:53;;;;;;;5.07;2.40;;;22.80;99.90;;;;;;4955239;28;20469;-71
2022/09/08 11:38:02;;;;;;;7.47;3.30;;;22.80;99.90;;;;;;4953480;28;20445;-70
2022/09/08 11:40:49;;;;;;;2.50;2.20;;;22.70;99.90;;;;;;4958109;28;20513;-70
2022/09/08 11:43:32;;;;;;;6.20;2.40;;;22.80;99.90;;;;;;4958910;28;20537;-71
2022/09/08 11:46:24;;;;;;;3.93;1.83;;;22.90;99.90;;;;;;4951999;28;20880;-70
2022/09/08 11:49:16;;;;;;;2.80;2.10;;;23.10;99.90;;;;;;4956071;28;20528;-71
2022/09/08 11:52:21;;;;;;;3.40;2.17;;;23.50;99.90;;;;;;4957682;28;20506;-70
2022/09/08 11:55:01;;;;;;;2.10;1.90;;;23.70;99.90;;;;;;4897741;28;20473;-71
2022/09/08 11:57:57;;;;;;;2.87;2.03;;;23.70;99.90;;;;;;4957495;28;20504;-71
2022/09/08 12:00:54;;;;;;;2.30;1.90;;;23.80;99.90;;;;;;4954115;28;20454;-71
2022/09/08 12:03:41;;;;;;;4.70;2.20;;;23.70;99.90;;;;;;4951786;28;20451;-71
2022/09/08 12:06:55;;;;;;;4.70;2.20;;;23.50;99.90;;;;;;4950464;28;20556;-71
2022/09/08 12:09:52;;;;;;;5.10;2.27;;;23.40;99.90;;;;;;4896628;29;20480;-71
2022/09/08 12:12:39;;;;;;;2.87;1.90;;;23.40;99.90;;;;;;4954238;28;20926;-71
2022/09/08 12:15:24;;;;;;;4.27;2.20;;;23.20;99.90;;;;;;4951525;28;20839;-71
2022/09/08 12:17:50;;;;;;;4.00;2.20;;;23.50;99.90;;;;;;4959003;28;20437;-71
2022/09/08 12:20:50;;;;;;;3.13;1.80;;;23.90;99.90;;;;;;4953509;28;20434;-72
2022/09/08 12:23:43;;;;;;;4.77;2.00;;;23.80;99.90;;;;;;4901698;28;20209;-71
2022/09/08 12:26:33;;;;;;;5.20;2.23;;;23.50;99.90;;;;;;4954829;28;20438;-71
2022/09/08 12:29:35;;;;;;;4.10;1.90;;;23.10;99.90;;;;;;4950633;28;21014;-72
2022/09/08 12:32:41;;;;;;;3.97;2.00;;;23.10;99.90;;;;;;4953604;28;20998;-71
2022/09/08 12:35:20;;;;;;;3.00;2.23;;;23.00;99.90;;;;;;4952503;28;20450;-72
2022/09/08 12:37:50;;;;;;;6.00;2.83;;;23.00;99.90;;;;;;4953470;28;20445;-71
2022/09/08 12:40:38;;;;;;;6.40;2.70;;;22.80;99.90;;;;;;4956864;28;20441;-71
2022/09/08 12:43:17;;;;;;;3.90;2.10;;;22.30;99.90;;;;;;4953447;28;20471;-72
2022/09/08 12:45:54;;;;;;;3.63;1.87;;;22.10;99.90;;;;;;4957999;28;20431;-72
2022/09/08 12:48:22;;;;;;;4.97;2.10;;;21.90;99.90;;;;;;4951572;28;21101;-72
2022/09/08 12:51:18;;;;;;;4.90;2.20;;;21.90;99.90;;;;;;4956703;28;20433;-71
2022/09/08 12:54:18;;;;;;;4.73;2.60;;;22.00;99.90;;;;;;4955359;28;20454;-71
2022/09/08 12:57:21;;;;;;;6.17;2.03;;;22.30;99.90;;;;;;4956728;28;20875;-71
2022/09/08 13:00:05;;;;;;;7.00;2.13;;;22.30;99.90;;;;;;4955051;28;20456;-71
2022/09/08 13:02:53;;;;;;;5.23;2.00;;;22.50;99.90;;;;;;4954347;28;21006;-72
2022/09/08 13:05:51;;;;;;;2.90;2.13;;;23.30;99.90;;;;;;4954450;28;21031;-71
2022/09/08 13:08:17;;;;;;;4.30;2.17;;;24.00;99.90;;;;;;4953700;28;20901;-72
2022/09/08 13:10:45;;;;;;;4.67;2.20;;;24.50;99.90;;;;;;4951581;28;20469;-70
2022/09/08 13:13:34;;;;;;;5.30;3.10;;;25.50;99.90;;;;;;4941054;28;20743;-71
2022/09/08 13:16:22;;;;;;;3.63;2.07;;;26.00;99.90;;;;;;4960993;28;20446;-69
2022/09/08 13:19:05;;;;;;;2.67;1.90;;;27.20;99.90;;;;;;4937982;28;20885;-75
2022/09/08 13:21:40;;;;;;;6.17;2.07;;;28.00;99.90;;;;;;4936559;28;20446;-73
2022/09/08 13:24:46;;;;;;;4.20;2.67;;;29.30;99.90;;;;;;4953954;28;20502;-74
2022/09/08 13:27:40;;;;;;;5.13;2.80;;;29.80;99.90;;;;;;4936077;28;20831;-74
2022/09/08 13:30:14;;;;;;;3.33;2.10;;;29.70;99.90;;;;;;4944291;28;20448;-75
2022/09/08 13:32:57;;;;;;;5.70;2.10;;;29.50;99.90;;;;;;4953159;28;20521;-74
2022/09/08 13:35:29;;;;;;;8.87;2.23;;;29.20;99.30;;;;;;4955252;28;20465;-74
2022/09/08 13:38:07;;;;;;;2.53;2.00;;;28.70;99.90;;;;;;4952435;28;21128;-74
2022/09/08 13:40:55;;;;;;;6.70;2.80;;;28.50;99.90;;;;;;4953408;28;20980;-72
2022/09/08 13:43:48;;;;;;;2.63;2.27;;;28.30;99.90;;;;;;4958110;28;21652;-73